createdAt,value
2022-12-09T00:00:35.964Z,2.10
2022-12-09T00:03:41.256Z,2.20
2022-12-09T00:06:44.379Z,2.10
2022-12-09T00:09:47.373Z,2.20
2022-12-09T00:12:50.323Z,1.80
2022-12-09T00:15:53.502Z,1.90
2022-12-09T00:18:58.453Z,1.80
2022-12-09T00:22:01.516Z,1.80
2022-12-09T00:25:04.877Z,2.00
2022-12-09T00:28:07.917Z,2.00
2022-12-09T00:31:15.170Z,2.00
2022-12-09T00:34:19.874Z,2.00
2022-12-09T00:37:23.032Z,2.00
2022-12-09T00:40:26.059Z,2.00
2022-12-09T00:43:29.320Z,2.10
2022-12-09T00:46:32.458Z,2.10
2022-12-09T00:49:36.802Z,2.00
2022-12-09T00:52:39.782Z,1.90
2022-12-09T00:55:42.957Z,1.90
2022-12-09T00:58:46.331Z,1.90
2022-12-09T01:01:49.367Z,1.90
2022-12-09T01:04:54.251Z,1.90
2022-12-09T01:07:57.436Z,1.90
2022-12-09T01:11:00.623Z,1.80
2022-12-09T01:14:04.692Z,1.80
2022-12-09T01:17:07.844Z,1.90
2022-12-09T01:20:12.652Z,2.00
2022-12-09T01:23:15.758Z,2.00
2022-12-09T01:26:19.163Z,2.00
2022-12-09T01:29:22.178Z,2.00
2022-12-09T01:32:25.347Z,1.90
2022-12-09T01:35:30.505Z,2.00
2022-12-09T01:38:33.818Z,2.10
2022-12-09T01:41:36.803Z,2.00
2022-12-09T01:44:39.908Z,2.10
2022-12-09T01:47:43.072Z,1.90
2022-12-09T01:50:52.204Z,2.10
2022-12-09T01:53:55.454Z,2.10
2022-12-09T01:56:58.611Z,2.20
2022-12-09T02:00:02.405Z,2.20
2022-12-09T02:03:07.804Z,2.20
2022-12-09T02:06:12.713Z,2.20
2022-12-09T02:09:16.152Z,2.20
2022-12-09T02:12:32.623Z,2.20
2022-12-09T02:15:42.923Z,2.20
2022-12-09T02:18:52.866Z,2.30
2022-12-09T02:22:00.756Z,2.40
2022-12-09T02:25:12.686Z,2.30
2022-12-09T02:28:48.838Z,2.30
2022-12-09T02:32:13.950Z,2.40
2022-12-09T02:35:24.498Z,2.30
2022-12-09T02:38:29.540Z,2.30
2022-12-09T02:41:35.206Z,2.40
2022-12-09T02:44:40.679Z,2.40
2022-12-09T02:47:50.077Z,2.40
2022-12-09T02:50:57.386Z,2.40
2022-12-09T02:54:06.164Z,2.50
2022-12-09T02:57:14.048Z,2.50
2022-12-09T03:00:17.742Z,2.60
2022-12-09T03:03:21.419Z,2.70
2022-12-09T03:06:32.110Z,2.70
2022-12-09T03:09:38.569Z,2.70
2022-12-09T03:12:44.468Z,2.70
2022-12-09T03:15:54.381Z,2.60
2022-12-09T03:19:02.438Z,2.60
2022-12-09T03:22:11.076Z,2.70
2022-12-09T03:25:19.564Z,2.60
2022-12-09T03:28:26.199Z,2.60
2022-12-09T03:31:31.848Z,2.50
2022-12-09T03:34:39.645Z,2.50
2022-12-09T03:37:45.867Z,2.50
2022-12-09T03:40:57.029Z,2.50
2022-12-09T03:44:05.379Z,2.50
2022-12-09T03:47:10.302Z,2.50
2022-12-09T03:50:14.268Z,2.50
2022-12-09T03:53:26.144Z,2.50
2022-12-09T03:56:33.437Z,2.50
2022-12-09T03:59:36.637Z,2.50
2022-12-09T04:02:39.878Z,2.30
2022-12-09T04:05:43.934Z,2.40
2022-12-09T04:08:48.683Z,2.30
2022-12-09T04:11:51.824Z,2.30
2022-12-09T04:14:54.911Z,2.20
2022-12-09T04:17:57.964Z,2.20
2022-12-09T04:21:01.059Z,2.10
2022-12-09T04:24:05.725Z,2.00
2022-12-09T04:27:08.807Z,1.90
2022-12-09T04:30:13.308Z,1.90
2022-12-09T04:33:17.047Z,2.00
2022-12-09T04:36:21.236Z,1.90
2022-12-09T04:39:25.953Z,1.80
2022-12-09T04:42:29.837Z,1.80
2022-12-09T04:45:33.143Z,1.80
2022-12-09T04:48:36.150Z,1.70
2022-12-09T04:51:40.113Z,1.70
2022-12-09T04:54:45.524Z,1.60
2022-12-09T04:57:48.678Z,1.60
2022-12-09T05:00:51.682Z,1.70
2022-12-09T05:03:55.544Z,1.60
2022-12-09T05:06:58.790Z,1.50
2022-12-09T05:10:03.405Z,1.50
2022-12-09T05:13:07.227Z,1.50
2022-12-09T05:16:15.889Z,1.50
2022-12-09T05:19:20.282Z,1.50
2022-12-09T05:22:23.470Z,1.60
2022-12-09T05:25:28.135Z,1.70
2022-12-09T05:28:31.891Z,1.80
2022-12-09T05:31:35.038Z,1.90
2022-12-09T05:34:39.562Z,2.00
2022-12-09T05:37:42.887Z,2.10
2022-12-09T05:40:47.397Z,2.10
2022-12-09T05:43:51.212Z,2.20
2022-12-09T05:46:54.293Z,2.10
2022-12-09T05:50:00.328Z,2.10
2022-12-09T05:53:06.254Z,2.10
2022-12-09T05:56:11.439Z,2.20
2022-12-09T05:59:14.479Z,2.30
2022-12-09T06:02:17.664Z,2.30
2022-12-09T06:05:21.445Z,2.40
2022-12-09T06:08:25.309Z,2.20
2022-12-09T06:11:30.460Z,2.30
2022-12-09T06:14:34.249Z,2.40
2022-12-09T06:17:37.441Z,2.30
2022-12-09T06:20:41.735Z,2.30
2022-12-09T06:23:45.013Z,2.40
2022-12-09T06:26:49.452Z,2.50
2022-12-09T06:29:52.883Z,2.60
2022-12-09T06:32:56.334Z,2.70
2022-12-09T06:36:03.407Z,2.80
2022-12-09T06:39:10.514Z,2.70
2022-12-09T06:42:15.637Z,2.60
2022-12-09T06:45:18.775Z,2.70
2022-12-09T06:48:22.260Z,2.80
2022-12-09T06:51:26.797Z,2.80
2022-12-09T06:54:30.342Z,2.80
2022-12-09T06:57:35.165Z,2.80
2022-12-09T07:00:40.435Z,2.80
2022-12-09T07:03:46.754Z,2.70
2022-12-09T07:06:50.360Z,2.70
2022-12-09T07:09:53.486Z,2.90
2022-12-09T07:12:58.071Z,2.90
2022-12-09T07:16:01.465Z,2.80
2022-12-09T07:19:06.150Z,2.80
2022-12-09T07:22:09.300Z,2.90
2022-12-09T07:25:13.520Z,3.00
2022-12-09T07:28:18.532Z,2.80
2022-12-09T07:31:24.310Z,2.70
2022-12-09T07:34:27.642Z,2.80
2022-12-09T07:37:31.220Z,3.00
2022-12-09T07:40:34.231Z,3.00
2022-12-09T07:43:38.577Z,2.90
2022-12-09T07:46:41.978Z,2.80
2022-12-09T07:49:45.364Z,2.60
2022-12-09T07:52:48.652Z,2.60
2022-12-09T07:55:52.205Z,2.70
2022-12-09T07:58:58.102Z,2.60
2022-12-09T08:02:05.990Z,2.60
2022-12-09T08:05:11.021Z,2.70
2022-12-09T08:08:14.897Z,2.60
2022-12-09T08:11:20.751Z,2.50
2022-12-09T08:14:25.263Z,2.60
2022-12-09T08:17:29.692Z,2.40
2022-12-09T08:20:33.039Z,2.60
2022-12-09T08:23:36.730Z,2.70
2022-12-09T08:26:41.141Z,2.80
2022-12-09T08:29:46.132Z,2.80
2022-12-09T08:32:49.334Z,2.50
2022-12-09T08:35:52.479Z,2.50
2022-12-09T08:38:56.323Z,2.50
2022-12-09T08:41:59.469Z,2.40
2022-12-09T08:45:04.192Z,2.60
2022-12-09T08:48:08.038Z,2.50
2022-12-09T08:51:13.184Z,2.50
2022-12-09T08:54:16.628Z,2.70
2022-12-09T08:57:24.166Z,2.70
2022-12-09T09:00:28.563Z,2.70
2022-12-09T09:03:32.309Z,2.80
2022-12-09T09:06:36.258Z,2.80
2022-12-09T09:09:40.609Z,2.70
2022-12-09T09:12:44.861Z,2.80
2022-12-09T09:15:49.635Z,3.00
2022-12-09T09:18:53.413Z,3.00
2022-12-09T09:21:57.712Z,3.00
2022-12-09T09:25:01.040Z,3.10
2022-12-09T09:28:04.377Z,3.20
2022-12-09T09:31:11.860Z,3.30
2022-12-09T09:34:17.169Z,3.10
2022-12-09T09:37:20.844Z,3.10
2022-12-09T09:40:24.455Z,3.30
2022-12-09T09:43:29.882Z,3.30
2022-12-09T09:46:42.294Z,3.40
2022-12-09T09:49:51.082Z,3.50
2022-12-09T09:52:56.029Z,3.30
2022-12-09T09:56:02.122Z,3.40
2022-12-09T09:59:21.427Z,3.50
2022-12-09T10:02:41.774Z,3.80
2022-12-09T10:05:51.778Z,3.90
2022-12-09T10:08:59.526Z,3.40
2022-12-09T10:12:18.885Z,3.20
2022-12-09T10:15:28.546Z,3.20
2022-12-09T10:18:37.935Z,3.20
2022-12-09T10:21:43.656Z,3.30
2022-12-09T10:24:50.196Z,3.50
2022-12-09T10:27:58.206Z,3.80
2022-12-09T10:31:01.768Z,4.00
2022-12-09T10:34:06.499Z,4.30
2022-12-09T10:37:17.213Z,4.00
2022-12-09T10:40:27.044Z,4.40
2022-12-09T10:43:39.141Z,4.50
2022-12-09T10:46:42.693Z,4.50
2022-12-09T10:49:49.348Z,4.50
2022-12-09T10:52:53.387Z,4.50
2022-12-09T10:55:59.613Z,4.80
2022-12-09T10:59:19.569Z,5.00
2022-12-09T11:02:23.233Z,5.30
2022-12-09T11:05:30.887Z,5.40
2022-12-09T11:08:35.332Z,5.10
2022-12-09T11:11:43.866Z,5.60
2022-12-09T11:14:52.553Z,5.90
2022-12-09T11:17:59.608Z,6.30
2022-12-09T11:21:07.204Z,6.40
2022-12-09T11:24:22.176Z,6.20
2022-12-09T11:27:28.965Z,6.10
2022-12-09T11:30:35.072Z,5.80
2022-12-09T11:33:42.565Z,5.70
2022-12-09T11:36:50.896Z,5.50
2022-12-09T11:39:53.976Z,5.10
2022-12-09T11:42:58.188Z,5.20
2022-12-09T11:46:01.777Z,4.90
2022-12-09T11:49:13.510Z,4.60
2022-12-09T11:52:27.584Z,4.70
2022-12-09T11:55:30.882Z,4.50
2022-12-09T11:58:40.559Z,4.90
2022-12-09T12:01:51.111Z,5.00
2022-12-09T12:04:59.826Z,5.20
2022-12-09T12:08:13.866Z,4.80
2022-12-09T12:11:21.564Z,5.20
2022-12-09T12:14:29.096Z,5.70
2022-12-09T12:17:37.806Z,5.70
2022-12-09T12:21:07.673Z,5.90
2022-12-09T12:24:33.316Z,5.30
2022-12-09T12:27:46.534Z,5.20
2022-12-09T12:30:57.206Z,5.20
2022-12-09T12:34:28.273Z,5.20
2022-12-09T12:37:44.093Z,5.00
2022-12-09T12:40:55.952Z,5.30
2022-12-09T12:44:28.758Z,5.40
2022-12-09T12:47:44.832Z,6.30
2022-12-09T12:51:02.930Z,7.40
2022-12-09T12:54:17.354Z,7.60
2022-12-09T12:57:30.454Z,7.50
2022-12-09T13:00:52.143Z,7.50
2022-12-09T13:04:02.765Z,7.70
2022-12-09T13:07:10.916Z,7.50
2022-12-09T13:10:21.353Z,7.00
2022-12-09T13:13:30.693Z,7.10
2022-12-09T13:16:37.074Z,7.10
2022-12-09T13:19:43.661Z,6.60
2022-12-09T13:22:50.989Z,6.70
2022-12-09T13:26:03.022Z,6.20
2022-12-09T13:29:17.884Z,6.00
2022-12-09T13:32:31.806Z,5.50
2022-12-09T13:35:41.384Z,5.50
2022-12-09T13:38:44.729Z,5.30
2022-12-09T13:42:05.435Z,5.30
2022-12-09T13:45:16.971Z,5.20
2022-12-09T13:48:45.836Z,5.10
2022-12-09T13:51:51.570Z,5.00
2022-12-09T13:54:54.724Z,4.80
2022-12-09T13:58:07.732Z,4.40
2022-12-09T14:01:20.651Z,4.40
2022-12-09T14:04:27.246Z,4.30
2022-12-09T14:07:35.597Z,4.40
2022-12-09T14:10:43.012Z,4.40
2022-12-09T14:13:46.006Z,4.40
2022-12-09T14:16:51.279Z,4.50
2022-12-09T14:20:01.795Z,4.50
2022-12-09T14:23:15.418Z,4.30
2022-12-09T14:26:34.931Z,4.50
2022-12-09T14:29:52.417Z,4.40
2022-12-09T14:32:57.925Z,4.50
2022-12-09T14:36:05.978Z,4.50
2022-12-09T14:39:24.603Z,4.40
2022-12-09T14:42:36.381Z,4.50
2022-12-09T14:45:48.731Z,4.40
2022-12-09T14:48:56.396Z,4.50
2022-12-09T14:52:02.209Z,4.40
2022-12-09T14:55:08.836Z,4.30
2022-12-09T14:58:19.424Z,4.00
2022-12-09T15:01:22.491Z,4.00
2022-12-09T15:04:31.356Z,3.90
2022-12-09T15:07:35.729Z,3.70
2022-12-09T15:10:39.726Z,3.70
2022-12-09T15:13:45.024Z,3.80
2022-12-09T15:16:50.628Z,3.90
2022-12-09T15:20:00.471Z,3.80
2022-12-09T15:23:07.246Z,3.90
2022-12-09T15:26:20.856Z,3.90
2022-12-09T15:29:29.430Z,3.70
2022-12-09T15:32:32.392Z,3.80
2022-12-09T15:35:36.951Z,3.50
2022-12-09T15:38:45.533Z,3.50
2022-12-09T15:42:10.198Z,3.50
2022-12-09T15:45:16.318Z,3.30
2022-12-09T15:48:22.591Z,3.30
2022-12-09T15:51:28.291Z,3.30
2022-12-09T15:54:35.575Z,3.20
2022-12-09T15:57:39.939Z,3.00
2022-12-09T16:00:47.107Z,3.00
2022-12-09T16:03:51.660Z,3.00
2022-12-09T16:06:56.818Z,2.70
2022-12-09T16:10:10.129Z,2.80
2022-12-09T16:13:14.901Z,2.80
2022-12-09T16:16:27.651Z,2.70
2022-12-09T16:19:35.949Z,2.70
2022-12-09T16:22:42.645Z,2.60
2022-12-09T16:25:48.875Z,2.50
2022-12-09T16:28:59.649Z,2.50
2022-12-09T16:32:19.641Z,2.50
2022-12-09T16:35:25.497Z,2.40
2022-12-09T16:38:30.934Z,2.40
2022-12-09T16:41:58.645Z,2.40
2022-12-09T16:45:23.162Z,2.30
2022-12-09T16:48:28.201Z,2.30
2022-12-09T16:51:31.165Z,2.20
2022-12-09T16:54:34.278Z,2.20
2022-12-09T16:57:38.599Z,2.20
2022-12-09T17:00:41.625Z,2.20
2022-12-09T17:03:46.926Z,2.20
2022-12-09T17:06:50.070Z,2.20
2022-12-09T17:09:53.041Z,2.20
2022-12-09T17:12:57.618Z,2.20
2022-12-09T17:16:01.832Z,2.10
2022-12-09T17:19:05.181Z,2.10
2022-12-09T17:22:08.140Z,2.00
2022-12-09T17:25:11.175Z,2.10
2022-12-09T17:28:15.460Z,2.10
2022-12-09T17:31:20.217Z,2.10
2022-12-09T17:34:23.226Z,2.00
2022-12-09T17:37:26.264Z,1.90
2022-12-09T17:40:29.202Z,1.90
2022-12-09T17:43:33.973Z,1.90
2022-12-09T17:46:36.981Z,1.90
2022-12-09T17:49:39.974Z,1.90
2022-12-09T17:52:43.102Z,1.80
2022-12-09T17:55:47.121Z,1.80
2022-12-09T17:58:56.780Z,1.70
2022-12-09T18:01:59.856Z,1.80
2022-12-09T18:05:02.930Z,1.80
2022-12-09T18:08:06.930Z,1.60
2022-12-09T18:11:11.975Z,1.50
2022-12-09T18:14:16.610Z,1.50
2022-12-09T18:17:20.029Z,1.60
2022-12-09T18:20:23.011Z,1.60
2022-12-09T18:23:25.993Z,1.60
2022-12-09T18:26:32.921Z,1.70
2022-12-09T18:29:41.467Z,1.60
2022-12-09T18:32:44.449Z,1.60
2022-12-09T18:35:47.380Z,1.50
2022-12-09T18:38:50.623Z,1.50
2022-12-09T18:41:53.573Z,1.50
2022-12-09T18:44:58.002Z,1.40
2022-12-09T18:48:00.989Z,1.30
2022-12-09T18:51:04.542Z,1.30
2022-12-09T18:54:08.971Z,1.30
2022-12-09T18:57:11.921Z,1.30
2022-12-09T19:00:16.531Z,1.30
2022-12-09T19:03:19.513Z,1.40
2022-12-09T19:06:24.905Z,1.50
2022-12-09T19:09:31.825Z,1.50
2022-12-09T19:12:56.313Z,1.60
2022-12-09T19:15:59.275Z,1.60
2022-12-09T19:19:08.734Z,1.50
2022-12-09T19:22:12.752Z,1.40
2022-12-09T19:25:15.723Z,1.40
2022-12-09T19:28:18.681Z,1.50
2022-12-09T19:31:27.744Z,1.50
2022-12-09T19:34:31.708Z,1.40
2022-12-09T19:37:34.705Z,1.60
2022-12-09T19:40:38.272Z,1.60
2022-12-09T19:43:41.218Z,1.70
2022-12-09T19:46:45.775Z,1.80
2022-12-09T19:49:49.136Z,1.50
2022-12-09T19:52:52.112Z,1.50
2022-12-09T19:55:55.073Z,1.50
2022-12-09T19:58:58.454Z,1.50
2022-12-09T20:02:02.937Z,1.50
2022-12-09T20:05:06.571Z,1.50
2022-12-09T20:08:09.592Z,1.60
2022-12-09T20:11:14.545Z,1.60
2022-12-09T20:14:18.908Z,1.60
2022-12-09T20:17:23.192Z,1.50
2022-12-09T20:20:26.129Z,1.60
2022-12-09T20:23:29.200Z,1.60
2022-12-09T20:26:34.390Z,1.60
2022-12-09T20:29:38.437Z,1.70
2022-12-09T20:32:43.801Z,1.60
2022-12-09T20:35:46.755Z,1.80
2022-12-09T20:38:51.880Z,1.90
2022-12-09T20:41:54.813Z,1.80
2022-12-09T20:44:57.756Z,1.70
2022-12-09T20:48:02.034Z,1.80
2022-12-09T20:51:06.405Z,1.70
2022-12-09T20:54:11.742Z,1.70
2022-12-09T20:57:14.761Z,1.70
2022-12-09T21:00:17.957Z,1.90
2022-12-09T21:03:22.581Z,1.80
2022-12-09T21:06:27.323Z,1.80
2022-12-09T21:09:30.282Z,1.90
2022-12-09T21:12:33.256Z,1.80
2022-12-09T21:15:36.212Z,1.80
2022-12-09T21:18:40.495Z,1.80
2022-12-09T21:21:46.834Z,1.80
2022-12-09T21:24:49.800Z,1.60
2022-12-09T21:27:52.734Z,1.70
2022-12-09T21:30:55.685Z,1.70
2022-12-09T21:34:03.441Z,1.80
2022-12-09T21:37:06.466Z,1.80
2022-12-09T21:40:10.631Z,1.80
2022-12-09T21:43:13.721Z,1.70
2022-12-09T21:46:19.445Z,1.80
2022-12-09T21:49:23.917Z,1.80
2022-12-09T21:52:26.874Z,1.80
2022-12-09T21:55:29.863Z,1.70
2022-12-09T21:58:33.724Z,1.80
2022-12-09T22:01:38.752Z,1.90
2022-12-09T22:04:43.194Z,1.90
2022-12-09T22:07:49.739Z,1.80
2022-12-09T22:10:52.835Z,1.80
2022-12-09T22:13:58.204Z,1.90
2022-12-09T22:17:01.310Z,2.10
2022-12-09T22:20:49.082Z,2.10
2022-12-09T22:23:30.373Z,2.20
2022-12-09T22:26:33.842Z,2.10
2022-12-09T22:29:36.811Z,2.10
2022-12-09T22:32:42.740Z,2.20
2022-12-09T22:35:48.674Z,2.20
2022-12-09T22:38:51.744Z,2.20
2022-12-09T22:41:54.715Z,2.20
2022-12-09T22:44:57.694Z,2.20
2022-12-09T22:48:00.657Z,2.10
2022-12-09T22:51:06.586Z,2.10
2022-12-09T22:54:10.497Z,1.90
2022-12-09T22:57:13.458Z,1.80
2022-12-09T23:00:17.550Z,1.80
2022-12-09T23:03:21.205Z,1.80
2022-12-09T23:06:26.837Z,1.80
2022-12-09T23:09:29.839Z,1.90
2022-12-09T23:12:32.789Z,1.90
2022-12-09T23:15:36.563Z,2.00
2022-12-09T23:18:40.426Z,2.10
2022-12-09T23:21:44.722Z,2.10
2022-12-09T23:24:48.903Z,2.00
2022-12-09T23:27:51.890Z,1.90
2022-12-09T23:30:54.852Z,2.00
2022-12-09T23:33:58.322Z,2.00
2022-12-09T23:37:03.354Z,2.00
2022-12-09T23:40:08.151Z,2.10
2022-12-09T23:43:11.370Z,2.20
2022-12-09T23:46:16.527Z,2.00
2022-12-09T23:49:19.651Z,1.80
2022-12-09T23:52:23.973Z,1.80
2022-12-09T23:55:26.922Z,1.80
2022-12-09T23:58:29.863Z,1.80
